| time (UTC) | temp C | wind direction | speed KPH | gust KPH | rain 1hr cm | rain 24hr cm | rain mn cm | humidity % | barometer mb |
| 20260504035423 | 11 | 282 | 0.0 | 0.0 | 0.00 | 0.00 | 0.00 | 52 | 1006.3 |
| 20260504034920 | 11 | 282 | 0.0 | 0.0 | 0.00 | 0.00 | 0.00 | 51 | 1006.1 |
| 20260504034418 | 12 | 282 | 0.0 | 0.0 | 0.00 | 0.00 | 0.00 | 49 | 1006.2 |
| 20260504033914 | 12 | 282 | 0.0 | 0.0 | 0.00 | 0.00 | 0.00 | 48 | 1006.5 |
| 20260504033412 | 12 | 282 | 0.0 | 0.0 | 0.00 | 0.00 | 0.00 | 48 | 1006.7 |
| 20260504032909 | 12 | 282 | 0.0 | 0.0 | 0.00 | 0.00 | 0.00 | 49 | 1006.5 |
| 20260504032406 | 13 | 282 | 0.0 | 0.0 | 0.00 | 0.00 | 0.00 | 47 | 1006.5 |
| 20260504031902 | 14 | 283 | 0.0 | 0.0 | 0.00 | 0.00 | 0.00 | 44 | 1006.6 |
| 20260504031359 | 14 | 284 | 0.0 | 0.0 | 0.00 | 0.00 | 0.00 | 44 | 1006.6 |
| 20260504030855 | 14 | 284 | 0.0 | 0.0 | 0.00 | 0.00 | 0.00 | 44 | 1006.8 |
| 20260504030353 | 15 | 284 | 0.0 | 0.0 | 0.00 | 0.00 | 0.00 | 43 | 1006.7 |
| 20260504025849 | 15 | 284 | 0.0 | 0.0 | 0.00 | 0.00 | 0.00 | 43 | 1006.7 |
| 20260504025346 | 15 | 284 | 0.0 | 0.0 | 0.00 | 0.00 | 0.00 | 43 | 1006.8 |
| 20260504024843 | 14 | 279 | 0.0 | 0.0 | 0.00 | 0.00 | 0.00 | 43 | 1006.6 |
| 20260504024339 | 15 | 274 | 0.0 | 0.0 | 0.00 | 0.00 | 0.00 | 43 | 1006.7 |
| 20260504023836 | 15 | 280 | 0.0 | 0.0 | 0.00 | 0.00 | 0.00 | 43 | 1006.5 |
| 20260504023333 | 15 | 290 | 0.0 | 0.0 | 0.00 | 0.00 | 0.00 | 42 | 1006.5 |
| 20260504022828 | 15 | 290 | 0.0 | 0.0 | 0.00 | 0.00 | 0.00 | 43 | 1006.5 |
| 20260504022326 | 15 | 290 | 0.0 | 0.0 | 0.00 | 0.00 | 0.00 | 43 | 1006.4 |
| 20260504021822 | 15 | 290 | 0.0 | 0.0 | 0.00 | 0.00 | 0.00 | 43 | 1006.4 |
| 20260504021320 | 14 | 290 | 0.0 | 0.0 | 0.00 | 0.00 | 0.00 | 45 | 1006.4 |
| 20260504020817 | 15 | 289 | 0.0 | 0.0 | 0.00 | 0.00 | 0.00 | 45 | 1006.3 |
| 20260504020313 | 15 | 288 | 0.0 | 0.0 | 0.00 | 0.00 | 0.00 | 46 | 1006.3 |
| 20260504015809 | 15 | 293 | 0.0 | 0.0 | 0.00 | 0.00 | 0.00 | 46 | 1006.2 |
| 20260504015306 | 15 | 295 | 0.0 | 0.0 | 0.00 | 0.00 | 0.00 | 45 | 1006.3 |
| 20260504014802 | 15 | 289 | 0.0 | 0.0 | 0.00 | 0.00 | 0.00 | 44 | 1006.5 |
| 20260504014258 | 16 | 293 | 0.0 | 0.0 | 0.00 | 0.00 | 0.00 | 43 | 1006.4 |
| 20260504013756 | 16 | 292 | 0.0 | 0.0 | 0.00 | 0.00 | 0.00 | 42 | 1006.3 |
| 20260504013253 | 16 | 294 | 0.0 | 0.0 | 0.00 | 0.00 | 0.00 | 42 | 1006.4 |
| 20260504012749 | 16 | 294 | 0.0 | 0.0 | 0.00 | 0.00 | 0.00 | 42 | 1006.2 |
| 20260504012247 | 16 | 295 | 0.0 | 0.0 | 0.00 | 0.00 | 0.00 | 42 | 1006.1 |
| 20260504011744 | 17 | 295 | 0.0 | 0.0 | 0.00 | 0.00 | 0.00 | 41 | 1006.2 |
| 20260504011241 | 17 | 306 | 0.0 | 0.0 | 0.00 | 0.00 | 0.00 | 39 | 1006.2 |
| 20260504010737 | 18 | 313 | 0.0 | 0.0 | 0.00 | 0.00 | 0.00 | 37 | 1006.1 |
| 20260504010233 | 18 | 313 | 0.0 | 0.0 | 0.00 | 0.00 | 0.00 | 36 | 1006.0 |
| 20260504005730 | 18 | 322 | 0.0 | 0.0 | 0.00 | 0.00 | 0.00 | 35 | 1006.0 |
| 20260504005227 | 18 | 306 | 0.0 | 0.0 | 0.00 | 0.00 | 0.00 | 34 | 1006.1 |
| 20260504004724 | 19 | 315 | 0.0 | 0.0 | 0.00 | 0.00 | 0.00 | 32 | 1006.2 |
| 20260504004221 | 19 | 306 | 0.0 | 1.6 | 0.00 | 0.00 | 0.00 | 32 | 1006.1 |
| 20260504003718 | 20 | 313 | 0.0 | 0.0 | 0.00 | 0.00 | 0.00 | 32 | 1006.2 |
| 20260504003215 | 20 | 310 | 0.0 | 0.0 | 0.00 | 0.00 | 0.00 | 31 | 1006.1 |
| 20260504002712 | 20 | 311 | 0.0 | 0.0 | 0.00 | 0.00 | 0.00 | 30 | 1006.1 |
| 20260504002209 | 20 | 309 | 0.0 | 0.0 | 0.00 | 0.00 | 0.00 | 30 | 1006.0 |
| 20260504001707 | 20 | 321 | 3.2 | 9.7 | 0.00 | 0.00 | 0.00 | 29 | 1005.9 |
| 20260504001203 | 20 | 315 | 3.2 | 9.7 | 0.00 | 0.00 | 0.00 | 29 | 1006.0 |
| 20260504000700 | 21 | 302 | 3.2 | 3.2 | 0.00 | 0.00 | 0.00 | 29 | 1005.8 |
| 20260504000157 | 21 | 303 | 0.0 | 1.6 | 0.00 | 0.00 | 0.00 | 30 | 1005.8 |
| 20260503235655 | 21 | 305 | 0.0 | 1.6 | 0.00 | 0.00 | 0.00 | 30 | 1005.9 |
| 20260503235151 | 21 | 318 | 1.6 | 3.2 | 0.00 | 0.00 | 0.00 | 29 | 1005.8 |
| 20260503234649 | 21 | 339 | 1.6 | 3.2 | 0.00 | 0.00 | 0.00 | 29 | 1005.8 |
| 20260503234148 | 21 | 326 | 0.0 | 0.0 | 0.00 | 0.00 | 0.00 | 28 | 1006.0 |
| 20260503233644 | 21 | 357 | 1.6 | 3.2 | 0.00 | 0.00 | 0.00 | 28 | 1005.9 |
| 20260503233139 | 21 | 346 | 3.2 | 4.8 | 0.00 | 0.00 | 0.00 | 27 | 1005.7 |
| 20260503232637 | 21 | 342 | 1.6 | 4.8 | 0.00 | 0.00 | 0.00 | 29 | 1005.8 |
| 20260503232134 | 21 | 329 | 1.6 | 3.2 | 0.00 | 0.00 | 0.00 | 29 | 1005.9 |
| 20260503231632 | 21 | 330 | 1.6 | 3.2 | 0.00 | 0.00 | 0.00 | 30 | 1005.8 |
| 20260503231128 | 21 | 329 | 0.0 | 1.6 | 0.00 | 0.00 | 0.00 | 31 | 1005.7 |
| 20260503230625 | 21 | 349 | 0.0 | 1.6 | 0.00 | 0.00 | 0.00 | 28 | 1005.8 |
| 20260503230122 | 21 | 298 | 4.8 | 9.7 | 0.00 | 0.00 | 0.00 | 29 | 1005.8 |
| 20260503225620 | 22 | 320 | 4.8 | 8.0 | 0.00 | 0.00 | 0.00 | 29 | 1005.7 |
| 20260503225119 | 22 | 294 | 4.8 | 9.7 | 0.00 | 0.00 | 0.00 | 30 | 1005.6 |
| 20260503224617 | 21 | 331 | 0.0 | 0.0 | 0.00 | 0.00 | 0.00 | 30 | 1005.7 |
| 20260503224115 | 21 | 337 | 1.6 | 1.6 | 0.00 | 0.00 | 0.00 | 32 | 1005.7 |
| 20260503223613 | 22 | 337 | 0.0 | 0.0 | 0.00 | 0.00 | 0.00 | 31 | 1005.7 |
| 20260503223108 | 21 | 316 | 0.0 | 1.6 | 0.00 | 0.00 | 0.00 | 31 | 1005.7 |
| 20260503222606 | 21 | 325 | 3.2 | 4.8 | 0.00 | 0.00 | 0.00 | 29 | 1005.6 |
| 20260503222104 | 22 | 8 | 8.0 | 12.9 | 0.00 | 0.00 | 0.00 | 29 | 1005.8 |
| 20260503221602 | 21 | 9 | 0.0 | 0.0 | 0.00 | 0.00 | 0.00 | 30 | 1005.5 |
| 20260503221059 | 22 | 11 | 9.7 | 12.9 | 0.00 | 0.00 | 0.00 | 29 | 1005.9 |
| 20260503220555 | 22 | 348 | 4.8 | 8.0 | 0.00 | 0.00 | 0.00 | 29 | 1005.8 |
| 20260503220052 | 22 | 333 | 4.8 | 8.0 | 0.00 | 0.00 | 0.00 | 29 | 1005.9 |
| 20260503215549 | 22 | 309 | 4.8 | 8.0 | 0.00 | 0.00 | 0.00 | 29 | 1005.8 |
| 20260503215046 | 22 | 346 | 0.0 | 1.6 | 0.00 | 0.00 | 0.00 | 31 | 1005.7 |
| 20260503214544 | 22 | 313 | 1.6 | 3.2 | 0.00 | 0.00 | 0.00 | 30 | 1005.7 |
| 20260503214040 | 21 | 328 | 0.0 | 1.6 | 0.00 | 0.00 | 0.00 | 29 | 1005.9 |
| 20260503213539 | 22 | 325 | 1.6 | 3.2 | 0.00 | 0.00 | 0.00 | 29 | 1005.7 |
| 20260503213035 | 22 | 303 | 3.2 | 8.0 | 0.00 | 0.00 | 0.00 | 29 | 1005.7 |
| 20260503212533 | 22 | 337 | 4.8 | 9.7 | 0.00 | 0.00 | 0.00 | 30 | 1005.8 |
| 20260503212030 | 22 | 351 | 6.4 | 12.9 | 0.00 | 0.00 | 0.00 | 30 | 1005.7 |
| 20260503211527 | 22 | 8 | 9.7 | 12.9 | 0.00 | 0.00 | 0.00 | 28 | 1005.8 |
| 20260503211023 | 22 | 317 | 1.6 | 3.2 | 0.00 | 0.00 | 0.00 | 27 | 1005.8 |
| 20260503210520 | 22 | 331 | 11.3 | 14.5 | 0.00 | 0.00 | 0.00 | 29 | 1005.9 |
| 20260503210015 | 22 | 321 | 1.6 | 3.2 | 0.00 | 0.00 | 0.00 | 30 | 1005.9 |
| 20260503205512 | 22 | 36 | 4.8 | 8.0 | 0.00 | 0.00 | 0.00 | 27 | 1005.8 |
| 20260503205009 | 22 | 331 | 8.0 | 14.5 | 0.00 | 0.00 | 0.00 | 27 | 1005.7 |
| 20260503204506 | 22 | 309 | 6.4 | 14.5 | 0.00 | 0.00 | 0.00 | 27 | 1005.8 |
| 20260503204003 | 22 | 321 | 1.6 | 3.2 | 0.00 | 0.00 | 0.00 | 29 | 1005.8 |
| 20260503203500 | 22 | 333 | 3.2 | 8.0 | 0.00 | 0.00 | 0.00 | 30 | 1005.9 |
| 20260503202956 | 22 | 5 | 1.6 | 1.6 | 0.00 | 0.00 | 0.00 | 31 | 1006.0 |
| 20260503202455 | 22 | 23 | 1.6 | 3.2 | 0.00 | 0.00 | 0.00 | 30 | 1006.0 |
| 20260503201953 | 22 | 338 | 0.0 | 3.2 | 0.00 | 0.00 | 0.00 | 30 | 1006.1 |
| 20260503201450 | 22 | 334 | 6.4 | 14.5 | 0.00 | 0.00 | 0.00 | 34 | 1005.9 |
| 20260503200947 | 22 | 346 | 3.2 | 8.0 | 0.00 | 0.00 | 0.00 | 29 | 1006.0 |
| 20260503200444 | 22 | 308 | 1.6 | 3.2 | 0.00 | 0.00 | 0.00 | 32 | 1006.0 |
| 20260503195940 | 22 | 351 | 1.6 | 3.2 | 0.00 | 0.00 | 0.00 | 35 | 1005.9 |
| 20260503195438 | 22 | 343 | 6.4 | 11.3 | 0.00 | 0.00 | 0.00 | 33 | 1005.8 |
| 20260503194934 | 21 | 343 | 9.7 | 14.5 | 0.00 | 0.00 | 0.00 | 32 | 1006.0 |
| 20260503194431 | 21 | 333 | 4.8 | 4.8 | 0.00 | 0.00 | 0.00 | 35 | 1005.9 |
| 20260503193926 | 21 | 2 | 4.8 | 4.8 | 0.00 | 0.00 | 0.00 | 34 | 1005.9 |
| 20260503193422 | 21 | 358 | 3.2 | 4.8 | 0.00 | 0.00 | 0.00 | 35 | 1006.1 |
| 20260503192918 | 21 | 323 | 9.7 | 12.9 | 0.00 | 0.00 | 0.00 | 35 | 1006.2 |
| 20260503192414 | 21 | 353 | 1.6 | 4.8 | 0.00 | 0.00 | 0.00 | 35 | 1006.0 |
| 20260503191910 | 21 | 341 | 0.0 | 0.0 | 0.00 | 0.00 | 0.00 | 38 | 1006.0 |
| 20260503191408 | 21 | 0 | 3.2 | 4.8 | 0.00 | 0.00 | 0.00 | 35 | 1006.1 |
| 20260503190904 | 21 | 332 | 4.8 | 8.0 | 0.00 | 0.00 | 0.00 | 36 | 1006.2 |
| 20260503190402 | 21 | 325 | 0.0 | 1.6 | 0.00 | 0.00 | 0.00 | 37 | 1006.3 |
| 20260503185858 | 21 | 17 | 9.7 | 14.5 | 0.00 | 0.00 | 0.00 | 36 | 1006.2 |
| 20260503185355 | 21 | 290 | 4.8 | 9.7 | 0.00 | 0.00 | 0.00 | 38 | 1006.2 |
| 20260503184854 | 21 | 19 | 4.8 | 8.0 | 0.00 | 0.00 | 0.00 | 38 | 1006.1 |
| 20260503184350 | 21 | 337 | 6.4 | 9.7 | 0.00 | 0.00 | 0.00 | 37 | 1006.1 |
| 20260503183846 | 21 | 347 | 1.6 | 1.6 | 0.00 | 0.00 | 0.00 | 39 | 1006.2 |
| 20260503183344 | 21 | 315 | 1.6 | 3.2 | 0.00 | 0.00 | 0.00 | 41 | 1006.2 |
| 20260503182841 | 21 | 331 | 1.6 | 3.2 | 0.00 | 0.00 | 0.00 | 40 | 1006.2 |
| 20260503182340 | 21 | 357 | 4.8 | 20.9 | 0.00 | 0.00 | 0.00 | 41 | 1006.2 |
| 20260503181837 | 21 | 346 | 3.2 | 4.8 | 0.00 | 0.00 | 0.00 | 40 | 1006.3 |
| 20260503181334 | 21 | 340 | 0.0 | 1.6 | 0.00 | 0.00 | 0.00 | 43 | 1006.2 |
| 20260503180830 | 21 | 317 | 6.4 | 14.5 | 0.00 | 0.00 | 0.00 | 40 | 1006.2 |
| 20260503180328 | 20 | 333 | 3.2 | 3.2 | 0.00 | 0.00 | 0.00 | 42 | 1006.2 |
| 20260503175824 | 21 | 4 | 3.2 | 4.8 | 0.00 | 0.00 | 0.00 | 42 | 1006.4 |
| 20260503175323 | 20 | 330 | 0.0 | 0.0 | 0.00 | 0.00 | 0.00 | 41 | 1006.4 |
| 20260503174818 | 20 | 341 | 1.6 | 1.6 | 0.00 | 0.00 | 0.00 | 40 | 1006.4 |
| 20260503174316 | 21 | 346 | 4.8 | 11.3 | 0.00 | 0.00 | 0.00 | 41 | 1006.4 |
| 20260503173811 | 20 | 347 | 0.0 | 0.0 | 0.00 | 0.00 | 0.00 | 42 | 1006.4 |
| 20260503173308 | 20 | 342 | 0.0 | 0.0 | 0.00 | 0.00 | 0.00 | 42 | 1006.6 |
| 20260503172805 | 20 | 320 | 1.6 | 1.6 | 0.00 | 0.00 | 0.00 | 41 | 1006.7 |
| 20260503172304 | 20 | 3 | 0.0 | 1.6 | 0.00 | 0.00 | 0.00 | 44 | 1006.5 |
| 20260503171758 | 19 | 275 | 4.8 | 8.0 | 0.00 | 0.00 | 0.00 | 43 | 1006.6 |
| 20260503171255 | 19 | 346 | 0.0 | 1.6 | 0.00 | 0.00 | 0.00 | 43 | 1006.7 |
| 20260503170752 | 19 | 310 | 0.0 | 1.6 | 0.00 | 0.00 | 0.00 | 44 | 1006.8 |
| 20260503170249 | 20 | 2 | 0.0 | 0.0 | 0.00 | 0.00 | 0.00 | 42 | 1006.7 |
| 20260503160211 | 17 | 276 | 1.6 | 3.2 | 0.00 | 0.00 | 0.00 | 47 | 1007.2 |
| 20260503150641 | 15 | 262 | 1.6 | 3.2 | 0.00 | 0.00 | 0.00 | 50 | 1006.9 |
| 20260503150137 | 15 | 258 | 8.0 | 11.3 | 0.00 | 0.00 | 0.00 | 49 | 1007.2 |
| 20260503131031 | 11 | 222 | 11.3 | 16.1 | 0.00 | 0.00 | 0.00 | 55 | 1008.0 |
| 20260503130528 | 11 | 218 | 9.7 | 11.3 | 0.00 | 0.00 | 0.00 | 55 | 1008.0 |
| 20260503110419 | 11 | 193 | 3.2 | 4.8 | 0.00 | 0.00 | 0.00 | 56 | 1008.9 |
| 20260503090304 | 11 | 228 | 1.6 | 3.2 | 0.00 | 0.00 | 0.00 | 49 | 1011.6 |
| 20260503081231 | 11 | 251 | 1.6 | 4.8 | 0.00 | 0.00 | 0.00 | 50 | 1012.3 |
| 20260503080727 | 11 | 243 | 1.6 | 3.2 | 0.00 | 0.00 | 0.00 | 50 | 1012.4 |
| 20260503080224 | 11 | 250 | 3.2 | 4.8 | 0.00 | 0.00 | 0.00 | 50 | 1012.4 |
| 20260503072701 | 11 | 226 | 0.0 | 1.6 | 0.00 | 0.00 | 0.00 | 50 | 1011.8 |
| 20260503072157 | 11 | 244 | 0.0 | 0.0 | 0.00 | 0.00 | 0.00 | 50 | 1011.9 |
| 20260503071654 | 11 | 260 | 0.0 | 0.0 | 0.00 | 0.00 | 0.00 | 50 | 1012.1 |
| 20260503071151 | 11 | 250 | 0.0 | 0.0 | 0.00 | 0.00 | 0.00 | 50 | 1012.2 |
| 20260503070648 | 11 | 231 | 1.6 | 3.2 | 0.00 | 0.00 | 0.00 | 52 | 1012.3 |
| 20260503070146 | 11 | 259 | 1.6 | 3.2 | 0.00 | 0.00 | 0.00 | 51 | 1012.3 |
| 20260503060110 | 10 | 235 | 1.6 | 4.8 | 0.00 | 0.00 | 0.00 | 54 | 1012.3 |
| 20260503055102 | 10 | 237 | 1.6 | 1.6 | 0.00 | 0.00 | 0.00 | 53 | 1012.5 |
| 20260503054557 | 10 | 240 | 3.2 | 8.0 | 0.00 | 0.00 | 0.00 | 53 | 1012.5 |
| 20260503054055 | 10 | 236 | 1.6 | 3.2 | 0.00 | 0.00 | 0.00 | 53 | 1012.4 |
| 20260503053553 | 10 | 230 | 1.6 | 4.8 | 0.00 | 0.00 | 0.00 | 52 | 1012.5 |
| 20260503053050 | 10 | 231 | 1.6 | 3.2 | 0.00 | 0.00 | 0.00 | 53 | 1012.6 |
| 20260503052547 | 10 | 229 | 1.6 | 1.6 | 0.00 | 0.00 | 0.00 | 53 | 1012.5 |
| 20260503052043 | 10 | 236 | 1.6 | 1.6 | 0.00 | 0.00 | 0.00 | 54 | 1012.5 |
| 20260503051539 | 10 | 223 | 1.6 | 4.8 | 0.00 | 0.00 | 0.00 | 55 | 1012.6 |
| 20260503051037 | 10 | 236 | 0.0 | 0.0 | 0.00 | 0.00 | 0.00 | 55 | 1012.5 |
| 20260503050532 | 9 | 236 | 0.0 | 0.0 | 0.00 | 0.00 | 0.00 | 56 | 1012.6 |
| 20260503050030 | 9 | 236 | 0.0 | 1.6 | 0.00 | 0.00 | 0.00 | 55 | 1012.6 |
| 20260503045527 | 8 | 245 | 1.6 | 3.2 | 0.00 | 0.00 | 0.00 | 57 | 1012.7 |
| 20260503045024 | 8 | 242 | 0.0 | 0.0 | 0.00 | 0.00 | 0.00 | 59 | 1012.7 |
| 20260503044521 | 8 | 242 | 0.0 | 0.0 | 0.00 | 0.00 | 0.00 | 59 | 1012.5 |
| 20260503044019 | 8 | 237 | 0.0 | 0.0 | 0.00 | 0.00 | 0.00 | 58 | 1012.6 |
| 20260503043514 | 8 | 230 | 0.0 | 0.0 | 0.00 | 0.00 | 0.00 | 58 | 1012.9 |
| 20260503043011 | 8 | 231 | 0.0 | 0.0 | 0.00 | 0.00 | 0.00 | 58 | 1012.8 |
| 20260503042508 | 9 | 235 | 0.0 | 0.0 | 0.00 | 0.00 | 0.00 | 57 | 1012.8 |
| 20260503042004 | 10 | 233 | 0.0 | 1.6 | 0.00 | 0.00 | 0.00 | 55 | 1013.1 |
| 20260503041501 | 9 | 232 | 0.0 | 0.0 | 0.00 | 0.00 | 0.00 | 55 | 1013.2 |
| 20260503040959 | 9 | 242 | 0.0 | 1.6 | 0.00 | 0.00 | 0.00 | 55 | 1013.3 |
| 20260503040456 | 9 | 240 | 0.0 | 0.0 | 0.00 | 0.00 | 0.00 | 55 | 1013.1 |
| 20260503035953 | 9 | 238 | 0.0 | 0.0 | 0.00 | 0.00 | 0.00 | 56 | 1013.3 |